sensor_id;sensor_type;location;lat;lon;timestamp;P1;durP1;ratioP1;P2;durP2;ratioP2
10333;SDS011;5212;47.892;16.406;2023-06-05T00:01:44;4.50;;;4.10;;
10333;SDS011;5212;47.892;16.406;2023-06-05T00:04:10;5.23;;;4.73;;
10333;SDS011;5212;47.892;16.406;2023-06-05T00:06:36;5.20;;;4.70;;
10333;SDS011;5212;47.892;16.406;2023-06-05T00:09:02;5.60;;;4.60;;
10333;SDS011;5212;47.892;16.406;2023-06-05T00:11:28;5.63;;;4.67;;
10333;SDS011;5212;47.892;16.406;2023-06-05T00:13:55;4.90;;;4.43;;
10333;SDS011;5212;47.892;16.406;2023-06-05T00:16:21;4.90;;;4.40;;
10333;SDS011;5212;47.892;16.406;2023-06-05T00:18:47;4.80;;;4.40;;
10333;SDS011;5212;47.892;16.406;2023-06-05T00:21:13;6.00;;;5.40;;
10333;SDS011;5212;47.892;16.406;2023-06-05T00:23:40;4.80;;;4.30;;
10333;SDS011;5212;47.892;16.406;2023-06-05T00:26:06;4.60;;;4.20;;
10333;SDS011;5212;47.892;16.406;2023-06-05T00:28:32;4.47;;;4.07;;
10333;SDS011;5212;47.892;16.406;2023-06-05T00:30:59;4.80;;;4.30;;
10333;SDS011;5212;47.892;16.406;2023-06-05T00:33:26;4.70;;;4.30;;
10333;SDS011;5212;47.892;16.406;2023-06-05T00:35:55;4.60;;;4.20;;
10333;SDS011;5212;47.892;16.406;2023-06-05T00:38:21;5.27;;;4.00;;
10333;SDS011;5212;47.892;16.406;2023-06-05T00:40:47;4.30;;;3.93;;
10333;SDS011;5212;47.892;16.406;2023-06-05T00:43:13;4.83;;;4.20;;
10333;SDS011;5212;47.892;16.406;2023-06-05T00:45:39;5.10;;;4.60;;
10333;SDS011;5212;47.892;16.406;2023-06-05T00:48:05;4.43;;;4.03;;
10333;SDS011;5212;47.892;16.406;2023-06-05T00:50:32;4.67;;;4.20;;
10333;SDS011;5212;47.892;16.406;2023-06-05T00:53:00;4.87;;;4.47;;
10333;SDS011;5212;47.892;16.406;2023-06-05T00:55:27;5.20;;;4.70;;
10333;SDS011;5212;47.892;16.406;2023-06-05T00:57:53;5.30;;;4.33;;
10333;SDS011;5212;47.892;16.406;2023-06-05T01:00:20;5.30;;;4.80;;
10333;SDS011;5212;47.892;16.406;2023-06-05T01:02:46;5.03;;;4.37;;
10333;SDS011;5212;47.892;16.406;2023-06-05T01:05:13;4.70;;;4.30;;
10333;SDS011;5212;47.892;16.406;2023-06-05T01:07:39;5.20;;;4.70;;
10333;SDS011;5212;47.892;16.406;2023-06-05T01:10:06;5.13;;;4.70;;
10333;SDS011;5212;47.892;16.406;2023-06-05T01:12:36;5.03;;;4.53;;
10333;SDS011;5212;47.892;16.406;2023-06-05T01:15:06;5.33;;;4.83;;
10333;SDS011;5212;47.892;16.406;2023-06-05T01:17:33;5.20;;;4.70;;
10333;SDS011;5212;47.892;16.406;2023-06-05T01:19:59;5.63;;;4.37;;
10333;SDS011;5212;47.892;16.406;2023-06-05T01:22:34;5.73;;;4.73;;
10333;SDS011;5212;47.892;16.406;2023-06-05T01:25:03;5.33;;;4.70;;
10333;SDS011;5212;47.892;16.406;2023-06-05T01:27:32;5.23;;;4.73;;
10333;SDS011;5212;47.892;16.406;2023-06-05T01:30:01;5.67;;;5.17;;
10333;SDS011;5212;47.892;16.406;2023-06-05T01:32:32;6.30;;;5.70;;
10333;SDS011;5212;47.892;16.406;2023-06-05T01:35:03;5.70;;;5.20;;
10333;SDS011;5212;47.892;16.406;2023-06-05T01:37:30;5.57;;;5.07;;
10333;SDS011;5212;47.892;16.406;2023-06-05T01:40:01;6.33;;;5.77;;
10333;SDS011;5212;47.892;16.406;2023-06-05T01:42:31;5.37;;;4.87;;
10333;SDS011;5212;47.892;16.406;2023-06-05T01:44:57;6.37;;;5.10;;
10333;SDS011;5212;47.892;16.406;2023-06-05T01:47:23;5.50;;;5.00;;
10333;SDS011;5212;47.892;16.406;2023-06-05T01:49:49;6.17;;;5.57;;
10333;SDS011;5212;47.892;16.406;2023-06-05T01:52:16;7.13;;;6.43;;
10333;SDS011;5212;47.892;16.406;2023-06-05T01:54:42;7.63;;;6.27;;
10333;SDS011;5212;47.892;16.406;2023-06-05T01:57:08;6.60;;;6.00;;
10333;SDS011;5212;47.892;16.406;2023-06-05T01:59:36;6.10;;;5.50;;
10333;SDS011;5212;47.892;16.406;2023-06-05T02:02:02;6.07;;;5.43;;
10333;SDS011;5212;47.892;16.406;2023-06-05T02:04:28;5.73;;;5.13;;
10333;SDS011;5212;47.892;16.406;2023-06-05T02:06:54;6.57;;;5.20;;
10333;SDS011;5212;47.892;16.406;2023-06-05T02:09:20;5.10;;;4.60;;
10333;SDS011;5212;47.892;16.406;2023-06-05T02:11:46;4.80;;;4.40;;
10333;SDS011;5212;47.892;16.406;2023-06-05T02:14:13;7.10;;;6.37;;
10333;SDS011;5212;47.892;16.406;2023-06-05T02:16:40;9.63;;;8.40;;
10333;SDS011;5212;47.892;16.406;2023-06-05T02:19:07;11.47;;;8.00;;
10333;SDS011;5212;47.892;16.406;2023-06-05T02:21:33;8.83;;;8.03;;
10333;SDS011;5212;47.892;16.406;2023-06-05T02:24:00;7.23;;;6.53;;
10333;SDS011;5212;47.892;16.406;2023-06-05T02:26:26;6.70;;;6.00;;
10333;SDS011;5212;47.892;16.406;2023-06-05T02:28:52;7.53;;;6.80;;
10333;SDS011;5212;47.892;16.406;2023-06-05T02:31:20;8.50;;;7.70;;
10333;SDS011;5212;47.892;16.406;2023-06-05T02:33:49;7.50;;;6.80;;
10333;SDS011;5212;47.892;16.406;2023-06-05T02:36:16;7.03;;;6.33;;
10333;SDS011;5212;47.892;16.406;2023-06-05T02:38:42;5.60;;;5.10;;
10333;SDS011;5212;47.892;16.406;2023-06-05T02:41:08;7.17;;;5.93;;
10333;SDS011;5212;47.892;16.406;2023-06-05T02:43:34;6.37;;;5.23;;
10333;SDS011;5212;47.892;16.406;2023-06-05T02:46:00;6.57;;;5.97;;
10333;SDS011;5212;47.892;16.406;2023-06-05T02:48:27;7.20;;;6.50;;
10333;SDS011;5212;47.892;16.406;2023-06-05T02:50:53;5.80;;;5.30;;
10333;SDS011;5212;47.892;16.406;2023-06-05T02:53:19;6.20;;;5.37;;
10333;SDS011;5212;47.892;16.406;2023-06-05T02:55:45;5.70;;;5.20;;
10333;SDS011;5212;47.892;16.406;2023-06-05T02:58:13;5.90;;;5.30;;
10333;SDS011;5212;47.892;16.406;2023-06-05T03:00:41;5.40;;;4.90;;
10333;SDS011;5212;47.892;16.406;2023-06-05T03:03:07;7.93;;;7.13;;
10333;SDS011;5212;47.892;16.406;2023-06-05T03:05:33;6.70;;;6.10;;
10333;SDS011;5212;47.892;16.406;2023-06-05T03:08:00;5.60;;;5.10;;
10333;SDS011;5212;47.892;16.406;2023-06-05T03:10:26;13.83;;;12.50;;
10333;SDS011;5212;47.892;16.406;2023-06-05T03:12:53;11.60;;;10.47;;
10333;SDS011;5212;47.892;16.406;2023-06-05T03:15:18;9.53;;;8.63;;
10333;SDS011;5212;47.892;16.406;2023-06-05T03:17:44;8.53;;;7.63;;
10333;SDS011;5212;47.892;16.406;2023-06-05T03:20:11;7.23;;;6.43;;
10333;SDS011;5212;47.892;16.406;2023-06-05T03:22:38;8.27;;;7.40;;
10333;SDS011;5212;47.892;16.406;2023-06-05T03:25:04;7.30;;;6.60;;
10333;SDS011;5212;47.892;16.406;2023-06-05T03:27:31;7.67;;;6.87;;
10333;SDS011;5212;47.892;16.406;2023-06-05T03:29:57;7.47;;;6.60;;
10333;SDS011;5212;47.892;16.406;2023-06-05T03:32:23;7.03;;;6.33;;
10333;SDS011;5212;47.892;16.406;2023-06-05T03:34:49;5.67;;;5.17;;
10333;SDS011;5212;47.892;16.406;2023-06-05T03:37:15;6.20;;;5.60;;
10333;SDS011;5212;47.892;16.406;2023-06-05T03:39:42;6.53;;;5.93;;
10333;SDS011;5212;47.892;16.406;2023-06-05T03:42:08;7.57;;;5.37;;
10333;SDS011;5212;47.892;16.406;2023-06-05T03:44:36;5.83;;;5.27;;
10333;SDS011;5212;47.892;16.406;2023-06-05T03:47:02;6.43;;;5.43;;
10333;SDS011;5212;47.892;16.406;2023-06-05T03:49:28;4.90;;;4.40;;
10333;SDS011;5212;47.892;16.406;2023-06-05T03:51:54;5.17;;;4.73;;
10333;SDS011;5212;47.892;16.406;2023-06-05T03:54:26;5.70;;;5.20;;
10333;SDS011;5212;47.892;16.406;2023-06-05T03:56:53;6.20;;;4.67;;
10333;SDS011;5212;47.892;16.406;2023-06-05T03:59:20;7.03;;;6.33;;
10333;SDS011;5212;47.892;16.406;2023-06-05T04:01:47;7.07;;;6.37;;
10333;SDS011;5212;47.892;16.406;2023-06-05T04:04:14;7.43;;;6.10;;
10333;SDS011;5212;47.892;16.406;2023-06-05T04:06:40;7.10;;;6.40;;
10333;SDS011;5212;47.892;16.406;2023-06-05T04:09:06;9.07;;;7.63;;
10333;SDS011;5212;47.892;16.406;2023-06-05T04:11:36;6.20;;;5.60;;
10333;SDS011;5212;47.892;16.406;2023-06-05T04:14:03;5.83;;;5.27;;
10333;SDS011;5212;47.892;16.406;2023-06-05T04:16:29;7.37;;;6.67;;
10333;SDS011;5212;47.892;16.406;2023-06-05T04:18:55;6.17;;;5.63;;
10333;SDS011;5212;47.892;16.406;2023-06-05T04:21:21;6.60;;;5.90;;
10333;SDS011;5212;47.892;16.406;2023-06-05T04:23:47;6.70;;;5.87;;
10333;SDS011;5212;47.892;16.406;2023-06-05T04:26:13;6.50;;;5.80;;
10333;SDS011;5212;47.892;16.406;2023-06-05T04:28:42;6.00;;;5.40;;
10333;SDS011;5212;47.892;16.406;2023-06-05T04:31:09;5.20;;;4.80;;
10333;SDS011;5212;47.892;16.406;2023-06-05T04:33:35;5.47;;;4.97;;
10333;SDS011;5212;47.892;16.406;2023-06-05T04:36:01;5.97;;;5.40;;
10333;SDS011;5212;47.892;16.406;2023-06-05T04:38:29;5.80;;;5.20;;
10333;SDS011;5212;47.892;16.406;2023-06-05T04:40:56;5.23;;;4.73;;
10333;SDS011;5212;47.892;16.406;2023-06-05T04:43:22;7.93;;;7.13;;
10333;SDS011;5212;47.892;16.406;2023-06-05T04:45:48;7.90;;;7.10;;
10333;SDS011;5212;47.892;16.406;2023-06-05T04:48:15;9.37;;;8.10;;
10333;SDS011;5212;47.892;16.406;2023-06-05T04:50:41;6.63;;;5.97;;
10333;SDS011;5212;47.892;16.406;2023-06-05T04:53:07;6.27;;;5.67;;
10333;SDS011;5212;47.892;16.406;2023-06-05T04:55:33;6.73;;;6.03;;
10333;SDS011;5212;47.892;16.406;2023-06-05T04:57:59;6.03;;;5.07;;
10333;SDS011;5212;47.892;16.406;2023-06-05T05:00:26;6.03;;;5.43;;
10333;SDS011;5212;47.892;16.406;2023-06-05T05:02:52;5.77;;;5.00;;
10333;SDS011;5212;47.892;16.406;2023-06-05T05:05:19;6.53;;;5.77;;
10333;SDS011;5212;47.892;16.406;2023-06-05T05:07:45;5.37;;;4.87;;
10333;SDS011;5212;47.892;16.406;2023-06-05T05:10:11;6.90;;;6.20;;
10333;SDS011;5212;47.892;16.406;2023-06-05T05:12:37;6.50;;;5.80;;
10333;SDS011;5212;47.892;16.406;2023-06-05T05:15:04;6.30;;;5.70;;
10333;SDS011;5212;47.892;16.406;2023-06-05T05:17:31;7.37;;;6.67;;
10333;SDS011;5212;47.892;16.406;2023-06-05T05:19:57;7.53;;;6.77;;
10333;SDS011;5212;47.892;16.406;2023-06-05T05:22:23;7.90;;;6.90;;
10333;SDS011;5212;47.892;16.406;2023-06-05T05:24:49;6.60;;;5.90;;
10333;SDS011;5212;47.892;16.406;2023-06-05T05:27:16;6.70;;;6.10;;
10333;SDS011;5212;47.892;16.406;2023-06-05T05:29:42;5.77;;;5.13;;
10333;SDS011;5212;47.892;16.406;2023-06-05T05:32:08;5.73;;;5.23;;
10333;SDS011;5212;47.892;16.406;2023-06-05T05:34:34;6.63;;;6.03;;
10333;SDS011;5212;47.892;16.406;2023-06-05T05:37:00;6.43;;;5.83;;
10333;SDS011;5212;47.892;16.406;2023-06-05T05:39:27;6.00;;;5.40;;
10333;SDS011;5212;47.892;16.406;2023-06-05T05:41:53;6.47;;;5.57;;
10333;SDS011;5212;47.892;16.406;2023-06-05T05:44:19;6.60;;;5.73;;
10333;SDS011;5212;47.892;16.406;2023-06-05T05:46:45;6.10;;;5.50;;
10333;SDS011;5212;47.892;16.406;2023-06-05T05:49:11;6.33;;;5.60;;
10333;SDS011;5212;47.892;16.406;2023-06-05T05:51:37;6.00;;;4.90;;
10333;SDS011;5212;47.892;16.406;2023-06-05T05:54:03;8.70;;;6.43;;
10333;SDS011;5212;47.892;16.406;2023-06-05T05:56:30;8.40;;;7.57;;
10333;SDS011;5212;47.892;16.406;2023-06-05T05:58:56;9.33;;;7.23;;
10333;SDS011;5212;47.892;16.406;2023-06-05T06:01:22;5.97;;;5.47;;
10333;SDS011;5212;47.892;16.406;2023-06-05T06:03:48;5.60;;;5.00;;
10333;SDS011;5212;47.892;16.406;2023-06-05T06:06:14;5.40;;;4.90;;
10333;SDS011;5212;47.892;16.406;2023-06-05T06:08:41;5.07;;;4.57;;
10333;SDS011;5212;47.892;16.406;2023-06-05T06:11:07;5.40;;;4.90;;
10333;SDS011;5212;47.892;16.406;2023-06-05T06:13:35;5.60;;;4.37;;
10333;SDS011;5212;47.892;16.406;2023-06-05T06:16:01;5.30;;;4.30;;
10333;SDS011;5212;47.892;16.406;2023-06-05T06:18:27;5.93;;;5.33;;
10333;SDS011;5212;47.892;16.406;2023-06-05T06:20:53;5.30;;;4.80;;
10333;SDS011;5212;47.892;16.406;2023-06-05T06:23:20;6.80;;;6.03;;
10333;SDS011;5212;47.892;16.406;2023-06-05T06:25:46;6.57;;;5.97;;
10333;SDS011;5212;47.892;16.406;2023-06-05T06:28:12;7.40;;;5.30;;
10333;SDS011;5212;47.892;16.406;2023-06-05T06:30:38;5.47;;;4.83;;
10333;SDS011;5212;47.892;16.406;2023-06-05T06:33:04;5.00;;;4.50;;
10333;SDS011;5212;47.892;16.406;2023-06-05T06:35:30;5.00;;;4.50;;
10333;SDS011;5212;47.892;16.406;2023-06-05T06:37:57;4.33;;;3.97;;
10333;SDS011;5212;47.892;16.406;2023-06-05T06:40:23;4.37;;;4.00;;
10333;SDS011;5212;47.892;16.406;2023-06-05T06:42:49;5.47;;;4.17;;
10333;SDS011;5212;47.892;16.406;2023-06-05T06:45:16;5.83;;;4.70;;
10333;SDS011;5212;47.892;16.406;2023-06-05T06:47:43;4.30;;;3.90;;
10333;SDS011;5212;47.892;16.406;2023-06-05T06:50:09;5.00;;;4.50;;
10333;SDS011;5212;47.892;16.406;2023-06-05T06:52:35;4.80;;;4.40;;
10333;SDS011;5212;47.892;16.406;2023-06-05T06:55:01;4.50;;;4.07;;
10333;SDS011;5212;47.892;16.406;2023-06-05T06:57:27;12.63;;;4.17;;
10333;SDS011;5212;47.892;16.406;2023-06-05T06:59:53;4.57;;;4.17;;
10333;SDS011;5212;47.892;16.406;2023-06-05T07:02:20;6.43;;;4.57;;
10333;SDS011;5212;47.892;16.406;2023-06-05T07:04:48;4.97;;;4.53;;
10333;SDS011;5212;47.892;16.406;2023-06-05T07:07:15;4.87;;;4.43;;
10333;SDS011;5212;47.892;16.406;2023-06-05T07:09:42;4.83;;;4.37;;
10333;SDS011;5212;47.892;16.406;2023-06-05T07:12:09;5.20;;;4.70;;
10333;SDS011;5212;47.892;16.406;2023-06-05T07:14:36;5.30;;;4.80;;
10333;SDS011;5212;47.892;16.406;2023-06-05T07:17:03;5.10;;;4.60;;
10333;SDS011;5212;47.892;16.406;2023-06-05T07:19:29;6.17;;;5.57;;
10333;SDS011;5212;47.892;16.406;2023-06-05T07:21:56;5.43;;;4.90;;
10333;SDS011;5212;47.892;16.406;2023-06-05T07:24:23;6.40;;;5.00;;
10333;SDS011;5212;47.892;16.406;2023-06-05T07:26:50;4.70;;;4.23;;
10333;SDS011;5212;47.892;16.406;2023-06-05T07:29:17;5.97;;;5.13;;
10333;SDS011;5212;47.892;16.406;2023-06-05T07:31:43;5.20;;;4.70;;
10333;SDS011;5212;47.892;16.406;2023-06-05T07:34:09;4.70;;;4.10;;
10333;SDS011;5212;47.892;16.406;2023-06-05T07:36:37;6.47;;;5.20;;
10333;SDS011;5212;47.892;16.406;2023-06-05T07:39:04;7.37;;;5.60;;
10333;SDS011;5212;47.892;16.406;2023-06-05T07:41:30;5.23;;;4.70;;
10333;SDS011;5212;47.892;16.406;2023-06-05T07:43:56;5.50;;;5.00;;
10333;SDS011;5212;47.892;16.406;2023-06-05T07:46:22;5.60;;;5.10;;
10333;SDS011;5212;47.892;16.406;2023-06-05T07:48:50;5.73;;;4.97;;
10333;SDS011;5212;47.892;16.406;2023-06-05T07:51:16;5.63;;;5.10;;
10333;SDS011;5212;47.892;16.406;2023-06-05T07:53:43;5.70;;;4.80;;
10333;SDS011;5212;47.892;16.406;2023-06-05T07:56:10;5.20;;;4.70;;
10333;SDS011;5212;47.892;16.406;2023-06-05T07:58:36;5.87;;;5.27;;
10333;SDS011;5212;47.892;16.406;2023-06-05T08:01:04;7.70;;;4.70;;
10333;SDS011;5212;47.892;16.406;2023-06-05T08:03:32;6.63;;;5.20;;
10333;SDS011;5212;47.892;16.406;2023-06-05T08:05:58;5.13;;;4.63;;
10333;SDS011;5212;47.892;16.406;2023-06-05T08:08:24;5.30;;;4.80;;
10333;SDS011;5212;47.892;16.406;2023-06-05T08:10:50;5.90;;;4.40;;
10333;SDS011;5212;47.892;16.406;2023-06-05T08:13:17;5.87;;;4.87;;
10333;SDS011;5212;47.892;16.406;2023-06-05T08:15:43;6.80;;;4.43;;
10333;SDS011;5212;47.892;16.406;2023-06-05T08:18:09;5.00;;;4.50;;
10333;SDS011;5212;47.892;16.406;2023-06-05T08:20:35;5.53;;;4.60;;
10333;SDS011;5212;47.892;16.406;2023-06-05T08:23:01;5.57;;;4.60;;
10333;SDS011;5212;47.892;16.406;2023-06-05T08:25:30;7.27;;;4.23;;
10333;SDS011;5212;47.892;16.406;2023-06-05T08:27:56;4.53;;;4.13;;
10333;SDS011;5212;47.892;16.406;2023-06-05T08:30:23;4.07;;;3.67;;
10333;SDS011;5212;47.892;16.406;2023-06-05T08:32:49;4.23;;;3.83;;
10333;SDS011;5212;47.892;16.406;2023-06-05T08:35:15;7.47;;;4.17;;
10333;SDS011;5212;47.892;16.406;2023-06-05T08:37:41;4.03;;;3.63;;
10333;SDS011;5212;47.892;16.406;2023-06-05T08:40:07;5.93;;;3.93;;
10333;SDS011;5212;47.892;16.406;2023-06-05T08:42:35;4.40;;;4.00;;
10333;SDS011;5212;47.892;16.406;2023-06-05T08:45:02;4.80;;;4.30;;
10333;SDS011;5212;47.892;16.406;2023-06-05T08:47:30;4.73;;;4.30;;
10333;SDS011;5212;47.892;16.406;2023-06-05T08:49:56;4.30;;;3.90;;
10333;SDS011;5212;47.892;16.406;2023-06-05T08:52:22;4.97;;;4.47;;
10333;SDS011;5212;47.892;16.406;2023-06-05T08:54:49;9.30;;;4.30;;
10333;SDS011;5212;47.892;16.406;2023-06-05T08:57:15;5.97;;;4.20;;
10333;SDS011;5212;47.892;16.406;2023-06-05T08:59:41;5.93;;;4.47;;
10333;SDS011;5212;47.892;16.406;2023-06-05T09:02:08;5.50;;;3.83;;
10333;SDS011;5212;47.892;16.406;2023-06-05T09:04:35;4.27;;;3.87;;
10333;SDS011;5212;47.892;16.406;2023-06-05T09:07:01;6.10;;;4.10;;
10333;SDS011;5212;47.892;16.406;2023-06-05T09:09:28;4.83;;;4.33;;
10333;SDS011;5212;47.892;16.406;2023-06-05T09:12:01;8.00;;;4.77;;
10333;SDS011;5212;47.892;16.406;2023-06-05T09:14:28;9.27;;;4.03;;
10333;SDS011;5212;47.892;16.406;2023-06-05T09:16:56;5.70;;;3.97;;
10333;SDS011;5212;47.892;16.406;2023-06-05T09:19:22;9.13;;;3.90;;
10333;SDS011;5212;47.892;16.406;2023-06-05T09:21:53;4.30;;;3.60;;
10333;SDS011;5212;47.892;16.406;2023-06-05T09:24:20;5.60;;;3.87;;
10333;SDS011;5212;47.892;16.406;2023-06-05T09:26:48;4.33;;;3.93;;
10333;SDS011;5212;47.892;16.406;2023-06-05T09:29:19;5.03;;;4.27;;
10333;SDS011;5212;47.892;16.406;2023-06-05T09:31:47;4.30;;;3.70;;
10333;SDS011;5212;47.892;16.406;2023-06-05T09:34:19;4.40;;;3.93;;
10333;SDS011;5212;47.892;16.406;2023-06-05T09:36:46;4.03;;;3.70;;
10333;SDS011;5212;47.892;16.406;2023-06-05T09:39:16;5.63;;;3.73;;
10333;SDS011;5212;47.892;16.406;2023-06-05T09:41:43;4.23;;;3.40;;
10333;SDS011;5212;47.892;16.406;2023-06-05T09:44:10;4.10;;;3.70;;
10333;SDS011;5212;47.892;16.406;2023-06-05T09:46:37;4.20;;;3.80;;
10333;SDS011;5212;47.892;16.406;2023-06-05T09:49:15;5.10;;;4.50;;
10333;SDS011;5212;47.892;16.406;2023-06-05T09:51:42;4.90;;;3.97;;
10333;SDS011;5212;47.892;16.406;2023-06-05T09:54:08;4.43;;;3.53;;
10333;SDS011;5212;47.892;16.406;2023-06-05T09:56:37;5.20;;;4.67;;
10333;SDS011;5212;47.892;16.406;2023-06-05T09:59:05;4.53;;;3.60;;
10333;SDS011;5212;47.892;16.406;2023-06-05T10:01:32;4.10;;;3.40;;
10333;SDS011;5212;47.892;16.406;2023-06-05T10:04:02;7.47;;;4.23;;
10333;SDS011;5212;47.892;16.406;2023-06-05T10:06:31;4.13;;;3.73;;
10333;SDS011;5212;47.892;16.406;2023-06-05T10:08:58;4.13;;;3.73;;
10333;SDS011;5212;47.892;16.406;2023-06-05T10:11:26;4.80;;;4.30;;
10333;SDS011;5212;47.892;16.406;2023-06-05T10:13:52;5.63;;;5.13;;
10333;SDS011;5212;47.892;16.406;2023-06-05T10:16:19;4.97;;;4.37;;
10333;SDS011;5212;47.892;16.406;2023-06-05T10:18:45;4.70;;;4.17;;
10333;SDS011;5212;47.892;16.406;2023-06-05T10:21:12;5.83;;;5.23;;
10333;SDS011;5212;47.892;16.406;2023-06-05T10:23:38;9.60;;;6.17;;
10333;SDS011;5212;47.892;16.406;2023-06-05T10:26:06;5.83;;;4.53;;
10333;SDS011;5212;47.892;16.406;2023-06-05T10:28:39;7.07;;;5.60;;
10333;SDS011;5212;47.892;16.406;2023-06-05T10:31:13;6.40;;;4.80;;
10333;SDS011;5212;47.892;16.406;2023-06-05T10:33:48;4.83;;;4.40;;
10333;SDS011;5212;47.892;16.406;2023-06-05T10:36:24;6.47;;;4.53;;
10333;SDS011;5212;47.892;16.406;2023-06-05T10:39:05;5.57;;;4.87;;
10333;SDS011;5212;47.892;16.406;2023-06-05T10:41:31;4.73;;;4.23;;
10333;SDS011;5212;47.892;16.406;2023-06-05T10:43:57;4.60;;;4.20;;
10333;SDS011;5212;47.892;16.406;2023-06-05T10:46:31;3.83;;;3.53;;
10333;SDS011;5212;47.892;16.406;2023-06-05T10:49:10;3.50;;;3.20;;
10333;SDS011;5212;47.892;16.406;2023-06-05T10:51:38;3.93;;;3.53;;
10333;SDS011;5212;47.892;16.406;2023-06-05T10:54:06;4.77;;;4.27;;
10333;SDS011;5212;47.892;16.406;2023-06-05T10:59:28;5.97;;;4.63;;
10333;SDS011;5212;47.892;16.406;2023-06-05T11:05:06;4.00;;;3.60;;
10333;SDS011;5212;47.892;16.406;2023-06-05T11:07:35;3.60;;;3.30;;
10333;SDS011;5212;47.892;16.406;2023-06-05T11:12:53;4.13;;;3.73;;
10333;SDS011;5212;47.892;16.406;2023-06-05T11:15:33;3.90;;;3.50;;
10333;SDS011;5212;47.892;16.406;2023-06-05T11:20:58;4.37;;;3.97;;
10333;SDS011;5212;47.892;16.406;2023-06-05T11:23:25;4.33;;;3.93;;
10333;SDS011;5212;47.892;16.406;2023-06-05T11:25:54;3.90;;;3.60;;
10333;SDS011;5212;47.892;16.406;2023-06-05T11:28:42;4.80;;;4.40;;
10333;SDS011;5212;47.892;16.406;2023-06-05T11:31:08;4.97;;;4.57;;
10333;SDS011;5212;47.892;16.406;2023-06-05T11:33:35;4.70;;;4.20;;
10333;SDS011;5212;47.892;16.406;2023-06-05T11:36:02;5.27;;;4.23;;
10333;SDS011;5212;47.892;16.406;2023-06-05T11:38:30;4.83;;;4.30;;
10333;SDS011;5212;47.892;16.406;2023-06-05T11:40:56;5.00;;;4.50;;
10333;SDS011;5212;47.892;16.406;2023-06-05T11:43:23;6.70;;;4.93;;
10333;SDS011;5212;47.892;16.406;2023-06-05T11:45:49;5.63;;;4.80;;
10333;SDS011;5212;47.892;16.406;2023-06-05T11:48:16;5.73;;;5.13;;
10333;SDS011;5212;47.892;16.406;2023-06-05T11:50:51;5.50;;;4.40;;
10333;SDS011;5212;47.892;16.406;2023-06-05T11:53:18;5.37;;;4.87;;
10333;SDS011;5212;47.892;16.406;2023-06-05T11:55:45;4.77;;;4.30;;
10333;SDS011;5212;47.892;16.406;2023-06-05T11:58:30;6.13;;;4.90;;
10333;SDS011;5212;47.892;16.406;2023-06-05T12:01:03;4.93;;;4.43;;
10333;SDS011;5212;47.892;16.406;2023-06-05T12:03:31;4.40;;;4.00;;
10333;SDS011;5212;47.892;16.406;2023-06-05T12:06:00;5.53;;;4.57;;
10333;SDS011;5212;47.892;16.406;2023-06-05T12:08:27;5.50;;;4.30;;
10333;SDS011;5212;47.892;16.406;2023-06-05T12:10:55;4.87;;;4.33;;
10333;SDS011;5212;47.892;16.406;2023-06-05T12:13:21;5.30;;;4.07;;
10333;SDS011;5212;47.892;16.406;2023-06-05T12:15:56;4.23;;;3.80;;
10333;SDS011;5212;47.892;16.406;2023-06-05T12:18:30;5.27;;;4.40;;
10333;SDS011;5212;47.892;16.406;2023-06-05T12:20:56;4.13;;;3.70;;
10333;SDS011;5212;47.892;16.406;2023-06-05T12:23:23;4.03;;;3.67;;
10333;SDS011;5212;47.892;16.406;2023-06-05T12:25:57;5.47;;;4.40;;
10333;SDS011;5212;47.892;16.406;2023-06-05T12:28:23;4.60;;;4.20;;
10333;SDS011;5212;47.892;16.406;2023-06-05T12:30:51;4.10;;;3.70;;
10333;SDS011;5212;47.892;16.406;2023-06-05T12:33:17;4.03;;;3.63;;
10333;SDS011;5212;47.892;16.406;2023-06-05T12:35:45;4.70;;;4.30;;
10333;SDS011;5212;47.892;16.406;2023-06-05T12:38:11;5.20;;;4.70;;
10333;SDS011;5212;47.892;16.406;2023-06-05T12:40:38;4.70;;;4.30;;
10333;SDS011;5212;47.892;16.406;2023-06-05T12:43:14;4.37;;;3.97;;
10333;SDS011;5212;47.892;16.406;2023-06-05T12:45:41;5.37;;;4.87;;
10333;SDS011;5212;47.892;16.406;2023-06-05T12:48:08;7.27;;;5.20;;
10333;SDS011;5212;47.892;16.406;2023-06-05T12:50:37;5.10;;;4.17;;
10333;SDS011;5212;47.892;16.406;2023-06-05T12:53:04;5.63;;;4.37;;
10333;SDS011;5212;47.892;16.406;2023-06-05T12:55:30;6.00;;;5.40;;
10333;SDS011;5212;47.892;16.406;2023-06-05T12:57:57;4.93;;;4.20;;
10333;SDS011;5212;47.892;16.406;2023-06-05T13:00:22;4.70;;;3.90;;
10333;SDS011;5212;47.892;16.406;2023-06-05T13:02:49;5.20;;;4.00;;
10333;SDS011;5212;47.892;16.406;2023-06-05T13:05:15;5.27;;;4.27;;
10333;SDS011;5212;47.892;16.406;2023-06-05T13:07:41;4.37;;;3.97;;
10333;SDS011;5212;47.892;16.406;2023-06-05T13:10:08;6.00;;;4.97;;
10333;SDS011;5212;47.892;16.406;2023-06-05T13:12:36;6.20;;;3.90;;
10333;SDS011;5212;47.892;16.406;2023-06-05T13:15:03;4.67;;;4.00;;
10333;SDS011;5212;47.892;16.406;2023-06-05T13:17:31;12.03;;;7.40;;
10333;SDS011;5212;47.892;16.406;2023-06-05T13:20:00;12.90;;;6.37;;
10333;SDS011;5212;47.892;16.406;2023-06-05T13:22:26;6.90;;;5.20;;
10333;SDS011;5212;47.892;16.406;2023-06-05T13:24:52;5.87;;;4.50;;
10333;SDS011;5212;47.892;16.406;2023-06-05T13:27:18;6.87;;;4.17;;
10333;SDS011;5212;47.892;16.406;2023-06-05T13:29:46;5.20;;;4.70;;
10333;SDS011;5212;47.892;16.406;2023-06-05T13:32:12;5.57;;;4.20;;
10333;SDS011;5212;47.892;16.406;2023-06-05T13:34:38;4.70;;;4.17;;
10333;SDS011;5212;47.892;16.406;2023-06-05T13:37:04;3.97;;;3.57;;
10333;SDS011;5212;47.892;16.406;2023-06-05T13:39:30;5.63;;;4.30;;
10333;SDS011;5212;47.892;16.406;2023-06-05T13:41:56;5.13;;;4.63;;
10333;SDS011;5212;47.892;16.406;2023-06-05T13:44:22;5.37;;;4.80;;
10333;SDS011;5212;47.892;16.406;2023-06-05T13:46:48;4.60;;;4.13;;
10333;SDS011;5212;47.892;16.406;2023-06-05T13:49:15;4.77;;;4.30;;
10333;SDS011;5212;47.892;16.406;2023-06-05T13:51:41;4.50;;;4.10;;
10333;SDS011;5212;47.892;16.406;2023-06-05T13:54:07;5.20;;;4.70;;
10333;SDS011;5212;47.892;16.406;2023-06-05T13:56:33;4.40;;;3.90;;
10333;SDS011;5212;47.892;16.406;2023-06-05T13:58:59;4.93;;;4.00;;
10333;SDS011;5212;47.892;16.406;2023-06-05T14:01:25;4.77;;;4.00;;
10333;SDS011;5212;47.892;16.406;2023-06-05T14:03:51;6.17;;;4.37;;
10333;SDS011;5212;47.892;16.406;2023-06-05T14:06:18;4.90;;;4.40;;
10333;SDS011;5212;47.892;16.406;2023-06-05T14:08:44;4.57;;;4.17;;
10333;SDS011;5212;47.892;16.406;2023-06-05T14:11:10;4.67;;;4.27;;
10333;SDS011;5212;47.892;16.406;2023-06-05T14:13:36;5.13;;;4.63;;
10333;SDS011;5212;47.892;16.406;2023-06-05T14:16:02;5.23;;;3.93;;
10333;SDS011;5212;47.892;16.406;2023-06-05T14:18:29;4.10;;;3.63;;
10333;SDS011;5212;47.892;16.406;2023-06-05T14:20:55;6.90;;;4.10;;
10333;SDS011;5212;47.892;16.406;2023-06-05T14:23:22;4.27;;;3.87;;
10333;SDS011;5212;47.892;16.406;2023-06-05T14:25:49;4.27;;;3.87;;
10333;SDS011;5212;47.892;16.406;2023-06-05T14:28:15;4.23;;;3.83;;
10333;SDS011;5212;47.892;16.406;2023-06-05T14:30:41;4.07;;;3.67;;
10333;SDS011;5212;47.892;16.406;2023-06-05T14:33:07;4.00;;;3.60;;
10333;SDS011;5212;47.892;16.406;2023-06-05T14:35:33;4.47;;;4.07;;
10333;SDS011;5212;47.892;16.406;2023-06-05T14:37:59;3.80;;;3.50;;
10333;SDS011;5212;47.892;16.406;2023-06-05T14:40:26;4.07;;;3.33;;
10333;SDS011;5212;47.892;16.406;2023-06-05T14:42:52;3.80;;;3.50;;
10333;SDS011;5212;47.892;16.406;2023-06-05T14:45:18;4.33;;;3.93;;
10333;SDS011;5212;47.892;16.406;2023-06-05T14:47:44;3.80;;;3.50;;
10333;SDS011;5212;47.892;16.406;2023-06-05T14:50:12;4.20;;;3.80;;
10333;SDS011;5212;47.892;16.406;2023-06-05T14:52:38;3.80;;;3.40;;
10333;SDS011;5212;47.892;16.406;2023-06-05T14:55:04;4.30;;;3.90;;
10333;SDS011;5212;47.892;16.406;2023-06-05T14:57:31;3.90;;;3.60;;
10333;SDS011;5212;47.892;16.406;2023-06-05T14:59:58;3.90;;;3.60;;